This is the latest recevied weather packets stored in our database for station/object W1REE. If no packets are shown the sender has not sent any weather packets the latest 10 day(s).
| Time | Temp. | Humidity | Pressure | Rain* | Wind** | Luminosity | Snow |
|---|---|---|---|---|---|---|---|
| 1777510598 | 6.11° C | 81% | 1021.3 hPa | 0 mm | - | 10 W/m² | - |
| 1777510294 | 6.11° C | 81% | 1021.1 hPa | 0 mm | - | 17 W/m² | - |
| 1777509992 | 6.11° C | 82% | 1021 hPa | 1.78 mm | - | 13 W/m² | - |
| 1777509687 | 6.67° C | 83% | 1021 hPa | 1.78 mm | - | 13 W/m² | - |
| 1777509384 | 6.67° C | 80% | 1020.8 hPa | 0 mm | - | 12 W/m² | - |
| 1777509081 | 6.67° C | 80% | 1020.7 hPa | 0 mm | - | 12 W/m² | - |
| 1777508778 | 6.67° C | 79% | 1020.7 hPa | 1.27 mm | - | 14 W/m² | - |
| 1777508475 | 7.22° C | 76% | 1020.8 hPa | 1.27 mm | - | 20 W/m² | - |
| 1777508172 | 7.22° C | 74% | 1020.6 hPa | 0 mm | - | 31 W/m² | - |
| 1777507869 | 7.78° C | 71% | 1020.2 hPa | 0 mm | - | 54 W/m² | - |
| 1777507566 | 7.78° C | 70% | 1020.5 hPa | 0 mm | - | 72 W/m² | - |
| 1777507263 | 7.22° C | 69% | 1020.5 hPa | 0 mm | - | 47 W/m² | - |
| 1777506960 | 7.22° C | 70% | 1020.6 hPa | 0 mm | - | 54 W/m² | - |
| 1777506657 | 7.22° C | 70% | 1020.5 hPa | 0 mm | - | 47 W/m² | - |
| 1777506354 | 7.22° C | 71% | 1020.4 hPa | 0 mm | - | 31 W/m² | - |
| 1777506049 | 7.22° C | 72% | 1020.4 hPa | 0 mm | - | 47 W/m² | - |
| 1777505745 | 7.78° C | 71% | 1020.5 hPa | 0 mm | - | 113 W/m² | - |
| 1777505443 | 7.78° C | 71% | 1020.5 hPa | 0 mm | - | 131 W/m² | - |
| 1777505139 | 7.78° C | 69% | 1020.4 hPa | 0 mm | - | 112 W/m² | - |
| 1777504836 | 8.33° C | 66% | 1020.4 hPa | 0 mm | - | 101 W/m² | - |
| 1777504533 | 8.89° C | 66% | 1020.2 hPa | 0 mm | - | 126 W/m² | - |
| 1777504229 | 8.33° C | 72% | 1020.1 hPa | 0 mm | - | 107 W/m² | - |
| 1777503925 | 8.33° C | 75% | 1020 hPa | 0 mm | - | 119 W/m² | - |
| 1777503621 | 7.78° C | 76% | 1019.6 hPa | 0 mm | - | 83 W/m² | - |
| 1777503318 | 7.78° C | 76% | 1019.6 hPa | 0 mm | - | 69 W/m² | - |
* Rain latest hour (hover to see other rain measurements)
** Current wind speed in m/s (hover to see current wind gust speed)